Hartland Point — ZIQS6 — position and weather

sailwx.info

Track history (hours):
 
Tides and Currents Weather Stations Pressure Air Temp Water Temp Dewpoint Dewpoint Depression Visibility Wind Speed Wind Dir Waves Ship Positions

Hartland Point

Last reported at 2014-Oct-20 17:18 UTC. Time now 2014-Oct-21 08:41 UTC.
Position N 36°28' E 014°01'.

Length 193 m; draft 5.7 m.

Type: Ship. MMSI: 235505000.

Date/timePositionNaut miles runAvg speedWind from/ knotsBaromVisibWave heightAir tempDewpointWater temp
2014-Oct-20 17:18N 36°28' E 014°01'2714.8
2014-Oct-20 15:28N 36°37' E 013°30'18315.1
2014-Oct-20 03:20N 37°31' E 009°51'1315.9
2014-Oct-20 02:30N 37°27' E 009°35'3015.3
2014-Oct-20 00:33N 37°18' E 008°59'1514.6
2014-Oct-19 23:33N 37°16' E 008°41'1514.6
2014-Oct-19 22:33N 37°16' E 008°22'1514.6
2014-Oct-19 21:33N 37°17' E 008°04'1514.9
2014-Oct-19 20:33N 37°17' E 007°45'2416.5
2014-Oct-19 19:04N 37°17' E 007°15'2013.2
2014-Oct-19 17:33N 37°19' E 006°50'1914.3
2014-Oct-19 16:12N 37°20' E 006°25'1113.3
2014-Oct-19 15:22N 37°20' E 006°11'1113.9
2014-Oct-19 14:33N 37°19' E 005°57'1514.5
2014-Oct-19 13:32N 37°19' E 005°39'1514.3
2014-Oct-19 12:27N 37°18' E 005°19'1314.3
2014-Oct-19 11:32N 37°17' E 005°03'2115.5
2014-Oct-19 10:09N 37°17' E 004°36'13115.0
2014-Oct-19 01:24N 36°57' E 001°53'1315.4
2014-Oct-19 00:33N 36°54' E 001°37'1515.0
2014-Oct-18 23:33N 36°50' E 001°19'1514.8
2014-Oct-18 22:33N 36°49' E 001°01'1515.1
2014-Oct-18 21:33N 36°45' E 000°42'1514.7
2014-Oct-18 20:33N 36°41' E 000°24'1413.7
2014-Oct-18 19:33N 36°42' E 000°07'3514.3
2014-Oct-18 17:07N 36°36' W 000°35'814.6
2014-Oct-18 16:33N 36°34' W 000°45'1514.6
2014-Oct-18 15:32N 36°32' W 001°04'1514.1
2014-Oct-18 14:29N 36°29' W 001°21'18815.6
2014-Oct-18 02:25N 35°58' W 005°11'1416.6
2014-Oct-18 01:33N 35°57' W 005°29'10914.8
2014-Oct-17 18:12N 34°38' W 006°60'116 5.6
2014-Oct-16 21:24N 35°58' W 008°43'3013.3
2014-Oct-16 19:10N 36°25' W 008°57'7513.0
2014-Oct-16 13:21N 37°29' W 009°48'1113.9
2014-Oct-16 12:33N 37°40' W 009°49'1414.1
2014-Oct-16 11:33N 37°54' W 009°53'  
2014-Oct-13 22:12N 50°28' W 001°17'913.3
2014-Oct-13 21:33N 50°33' W 001°05'1110.9
2014-Oct-13 20:33N 50°44' W 001°03'1313.2
2014-Oct-13 19:33N 50°51' W 001°20'4 4.2
2014-Oct-13 18:33N 50°54' W 001°25'0 0.0
2014-Oct-13 17:33N 50°54' W 001°25'0 0.0
2014-Oct-13 16:33N 50°54' W 001°25'0 0.0
2014-Oct-13 15:32N 50°54' W 001°25'0 0.0
2014-Oct-13 14:32N 50°54' W 001°25'0 0.0
2014-Oct-13 13:31N 50°54' W 001°25'0 0.0
2014-Oct-13 12:31N 50°54' W 001°25'0 0.0
2014-Oct-13 11:33N 50°54' W 001°25'0 0.0
2014-Oct-13 10:33N 50°54' W 001°25'0 0.0
2014-Oct-13 09:33N 50°54' W 001°25'0 0.0
2014-Oct-13 08:32N 50°54' W 001°25'0 0.0
2014-Oct-13 07:32N 50°54' W 001°25'0 0.0
2014-Oct-13 06:31N 50°54' W 001°25'0 0.0
2014-Oct-13 05:31N 50°54' W 001°25'0 0.0
2014-Oct-13 04:33N 50°54' W 001°25'0 0.0
2014-Oct-13 03:33N 50°54' W 001°25'0 0.0
2014-Oct-13 02:33N 50°54' W 001°25'0 0.0
2014-Oct-13 01:32N 50°54' W 001°25'0 0.0
2014-Oct-13 00:32N 50°54' W 001°25'0 0.0
2014-Oct-12 23:31N 50°54' W 001°25'0 0.0
2014-Oct-12 22:31N 50°54' W 001°25'0 0.0
2014-Oct-12 21:33N 50°54' W 001°25'0 0.0
2014-Oct-12 20:33N 50°54' W 001°25'0 0.0
2014-Oct-12 19:33N 50°54' W 001°25'0 0.0
2014-Oct-12 18:32N 50°54' W 001°25'0 0.0
2014-Oct-12 17:32N 50°54' W 001°25'0 0.0
2014-Oct-12 16:31N 50°54' W 001°25'0 0.0
2014-Oct-12 15:31N 50°54' W 001°25'0 0.0
2014-Oct-12 14:33N 50°54' W 001°25'0 0.0
2014-Oct-12 13:33N 50°54' W 001°25'0 0.0
2014-Oct-12 12:33N 50°54' W 001°25'0 0.0
2014-Oct-12 11:32N 50°54' W 001°25'0 0.0
2014-Oct-12 10:32N 50°54' W 001°25'0 0.0
2014-Oct-12 09:31N 50°54' W 001°25'0 0.0
2014-Oct-12 08:31N 50°54' W 001°25'0 0.0
2014-Oct-12 07:33N 50°54' W 001°25'0 0.0
2014-Oct-12 06:33N 50°54' W 001°25'0 0.0
2014-Oct-12 05:33N 50°54' W 001°25'0 0.0
2014-Oct-12 04:32N 50°54' W 001°25'0 0.0
2014-Oct-12 03:32N 50°54' W 001°25'0 0.0
2014-Oct-12 02:31N 50°54' W 001°25'0 0.0
2014-Oct-12 01:31N 50°54' W 001°25'0 0.0
2014-Oct-12 00:33N 50°54' W 001°25'0 0.0
2014-Oct-11 23:33N 50°54' W 001°25'0 0.0
2014-Oct-11 22:33N 50°54' W 001°25'0 0.0
2014-Oct-11 21:32N 50°54' W 001°25'0 0.0
2014-Oct-11 20:32N 50°54' W 001°25'0 0.0
2014-Oct-11 19:31N 50°54' W 001°25'0 0.0
2014-Oct-11 18:31N 50°54' W 001°25'0 0.0
2014-Oct-11 17:33N 50°54' W 001°25'0 0.0
2014-Oct-11 16:33N 50°54' W 001°25'0 0.0
2014-Oct-11 15:32N 50°54' W 001°25'0 0.0
2014-Oct-11 14:32N 50°54' W 001°25'0 0.0
2014-Oct-11 13:32N 50°54' W 001°25'0 0.0
2014-Oct-11 12:31N 50°54' W 001°25'0 0.0
2014-Oct-11 11:31N 50°54' W 001°25'0 0.0
2014-Oct-11 10:33N 50°54' W 001°25'0 0.0
2014-Oct-11 09:33N 50°54' W 001°25'0 0.0
2014-Oct-11 08:32N 50°54' W 001°25'0 0.0
2014-Oct-11 07:32N 50°54' W 001°25'0 0.0
2014-Oct-11 06:32N 50°54' W 001°25'0 0.0
2014-Oct-11 05:31N 50°54' W 001°25'0 0.0
2014-Oct-11 04:31N 50°54' W 001°25'0 0.0
2014-Oct-11 03:33N 50°54' W 001°25'0 0.0
2014-Oct-11 02:33N 50°54' W 001°25'0 0.0
2014-Oct-11 01:32N 50°54' W 001°25'0 0.0
2014-Oct-11 00:32N 50°54' W 001°25'0 0.0
2014-Oct-10 23:32N 50°54' W 001°25'0 0.0
2014-Oct-10 22:31N 50°54' W 001°25'0 0.0
2014-Oct-10 21:31N 50°54' W 001°25'0 0.0
2014-Oct-10 20:33N 50°54' W 001°25'0 0.0
2014-Oct-10 19:33N 50°54' W 001°25'0 0.0
2014-Oct-10 18:32N 50°54' W 001°25'0 0.0
2014-Oct-10 17:32N 50°54' W 001°25'  
Track history (hours):
 
Tides and Currents Weather Stations Pressure Air Temp Water Temp Dewpoint Dewpoint Depression Visibility Wind Speed Wind Dir Waves Ship Positions

Hartland Point

Last reported at 2014-Oct-20 17:18 UTC. Time now 2014-Oct-21 08:41 UTC.
Position N 36°28' E 014°01'.

Length 193 m; draft 5.7 m.

Type: Ship. MMSI: 235505000.

Date/timePositionNaut miles runAvg speedWind from/ knotsBaromVisibWave heightAir tempDewpointWater temp
2014-Oct-20 17:18N 36°28' E 014°01'2714.8
2014-Oct-20 15:28N 36°37' E 013°30'18315.1
2014-Oct-20 03:20N 37°31' E 009°51'1315.9
2014-Oct-20 02:30N 37°27' E 009°35'3015.3
2014-Oct-20 00:33N 37°18' E 008°59'1514.6
2014-Oct-19 23:33N 37°16' E 008°41'1514.6
2014-Oct-19 22:33N 37°16' E 008°22'1514.6
2014-Oct-19 21:33N 37°17' E 008°04'1514.9
2014-Oct-19 20:33N 37°17' E 007°45'2416.5
2014-Oct-19 19:04N 37°17' E 007°15'2013.2
2014-Oct-19 17:33N 37°19' E 006°50'1914.3
2014-Oct-19 16:12N 37°20' E 006°25'1113.3
2014-Oct-19 15:22N 37°20' E 006°11'1113.9
2014-Oct-19 14:33N 37°19' E 005°57'1514.5
2014-Oct-19 13:32N 37°19' E 005°39'1514.3
2014-Oct-19 12:27N 37°18' E 005°19'1314.3
2014-Oct-19 11:32N 37°17' E 005°03'2115.5
2014-Oct-19 10:09N 37°17' E 004°36'13115.0
2014-Oct-19 01:24N 36°57' E 001°53'1315.4
2014-Oct-19 00:33N 36°54' E 001°37'1515.0
2014-Oct-18 23:33N 36°50' E 001°19'1514.8
2014-Oct-18 22:33N 36°49' E 001°01'1515.1
2014-Oct-18 21:33N 36°45' E 000°42'1514.7
2014-Oct-18 20:33N 36°41' E 000°24'1413.7
2014-Oct-18 19:33N 36°42' E 000°07'3514.3
2014-Oct-18 17:07N 36°36' W 000°35'814.6
2014-Oct-18 16:33N 36°34' W 000°45'1514.6
2014-Oct-18 15:32N 36°32' W 001°04'1514.1
2014-Oct-18 14:29N 36°29' W 001°21'18815.6
2014-Oct-18 02:25N 35°58' W 005°11'1416.6
2014-Oct-18 01:33N 35°57' W 005°29'10914.8
2014-Oct-17 18:12N 34°38' W 006°60'116 5.6
2014-Oct-16 21:24N 35°58' W 008°43'3013.3
2014-Oct-16 19:10N 36°25' W 008°57'7513.0
2014-Oct-16 13:21N 37°29' W 009°48'1113.9
2014-Oct-16 12:33N 37°40' W 009°49'1414.1
2014-Oct-16 11:33N 37°54' W 009°53'  
2014-Oct-13 22:12N 50°28' W 001°17'913.3
2014-Oct-13 21:33N 50°33' W 001°05'1110.9
2014-Oct-13 20:33N 50°44' W 001°03'1313.2
2014-Oct-13 19:33N 50°51' W 001°20'4 4.2
2014-Oct-13 18:33N 50°54' W 001°25'0 0.0
2014-Oct-13 17:33N 50°54' W 001°25'0 0.0
2014-Oct-13 16:33N 50°54' W 001°25'0 0.0
2014-Oct-13 15:32N 50°54' W 001°25'0 0.0
2014-Oct-13 14:32N 50°54' W 001°25'0 0.0
2014-Oct-13 13:31N 50°54' W 001°25'0 0.0
2014-Oct-13 12:31N 50°54' W 001°25'0 0.0
2014-Oct-13 11:33N 50°54' W 001°25'0 0.0
2014-Oct-13 10:33N 50°54' W 001°25'0 0.0
2014-Oct-13 09:33N 50°54' W 001°25'0 0.0
2014-Oct-13 08:32N 50°54' W 001°25'0 0.0
2014-Oct-13 07:32N 50°54' W 001°25'0 0.0
2014-Oct-13 06:31N 50°54' W 001°25'0 0.0
2014-Oct-13 05:31N 50°54' W 001°25'0 0.0
2014-Oct-13 04:33N 50°54' W 001°25'0 0.0
2014-Oct-13 03:33N 50°54' W 001°25'0 0.0
2014-Oct-13 02:33N 50°54' W 001°25'0 0.0
2014-Oct-13 01:32N 50°54' W 001°25'0 0.0
2014-Oct-13 00:32N 50°54' W 001°25'0 0.0
2014-Oct-12 23:31N 50°54' W 001°25'0 0.0
2014-Oct-12 22:31N 50°54' W 001°25'0 0.0
2014-Oct-12 21:33N 50°54' W 001°25'0 0.0
2014-Oct-12 20:33N 50°54' W 001°25'0 0.0
2014-Oct-12 19:33N 50°54' W 001°25'0 0.0
2014-Oct-12 18:32N 50°54' W 001°25'0 0.0
2014-Oct-12 17:32N 50°54' W 001°25'0 0.0
2014-Oct-12 16:31N 50°54' W 001°25'0 0.0
2014-Oct-12 15:31N 50°54' W 001°25'0 0.0
2014-Oct-12 14:33N 50°54' W 001°25'0 0.0
2014-Oct-12 13:33N 50°54' W 001°25'0 0.0
2014-Oct-12 12:33N 50°54' W 001°25'0 0.0
2014-Oct-12 11:32N 50°54' W 001°25'0 0.0
2014-Oct-12 10:32N 50°54' W 001°25'0 0.0
2014-Oct-12 09:31N 50°54' W 001°25'0 0.0
2014-Oct-12 08:31N 50°54' W 001°25'0 0.0
2014-Oct-12 07:33N 50°54' W 001°25'0 0.0
2014-Oct-12 06:33N 50°54' W 001°25'0 0.0
2014-Oct-12 05:33N 50°54' W 001°25'0 0.0
2014-Oct-12 04:32N 50°54' W 001°25'0 0.0
2014-Oct-12 03:32N 50°54' W 001°25'0 0.0
2014-Oct-12 02:31N 50°54' W 001°25'0 0.0
2014-Oct-12 01:31N 50°54' W 001°25'0 0.0
2014-Oct-12 00:33N 50°54' W 001°25'0 0.0
2014-Oct-11 23:33N 50°54' W 001°25'0 0.0
2014-Oct-11 22:33N 50°54' W 001°25'0 0.0
2014-Oct-11 21:32N 50°54' W 001°25'0 0.0
2014-Oct-11 20:32N 50°54' W 001°25'0 0.0
2014-Oct-11 19:31N 50°54' W 001°25'0 0.0
2014-Oct-11 18:31N 50°54' W 001°25'0 0.0
2014-Oct-11 17:33N 50°54' W 001°25'0 0.0
2014-Oct-11 16:33N 50°54' W 001°25'0 0.0
2014-Oct-11 15:32N 50°54' W 001°25'0 0.0
2014-Oct-11 14:32N 50°54' W 001°25'0 0.0
2014-Oct-11 13:32N 50°54' W 001°25'0 0.0
2014-Oct-11 12:31N 50°54' W 001°25'0 0.0
2014-Oct-11 11:31N 50°54' W 001°25'0 0.0
2014-Oct-11 10:33N 50°54' W 001°25'0 0.0
2014-Oct-11 09:33N 50°54' W 001°25'0 0.0
2014-Oct-11 08:32N 50°54' W 001°25'0 0.0
2014-Oct-11 07:32N 50°54' W 001°25'0 0.0
2014-Oct-11 06:32N 50°54' W 001°25'0 0.0
2014-Oct-11 05:31N 50°54' W 001°25'0 0.0
2014-Oct-11 04:31N 50°54' W 001°25'0 0.0
2014-Oct-11 03:33N 50°54' W 001°25'0 0.0
2014-Oct-11 02:33N 50°54' W 001°25'0 0.0
2014-Oct-11 01:32N 50°54' W 001°25'0 0.0
2014-Oct-11 00:32N 50°54' W 001°25'0 0.0
2014-Oct-10 23:32N 50°54' W 001°25'0 0.0
2014-Oct-10 22:31N 50°54' W 001°25'0 0.0
2014-Oct-10 21:31N 50°54' W 001°25'0 0.0
2014-Oct-10 20:33N 50°54' W 001°25'0 0.0
2014-Oct-10 19:33N 50°54' W 001°25'0 0.0
2014-Oct-10 18:32N 50°54' W 001°25'0 0.0
2014-Oct-10 17:32N 50°54' W 001°25'  

Dump ship's entire track history